Time;durP1;ratioP1;P1;durP2;ratioP2;P2;SDS_P1;SDS_P2;PMS_P1;PMS_P2;Temp;Humidity;BMP_temperature;BMP_pressure;BME280_temperature;BME280_humidity;BME280_pressure;Samples;Min_cycle;Max_cycle;Signal;HPM_P1;HPM_P2
2021/01/23 00:01:45;;;;;;;20.92;11.10;;;;;;;;;;5088908;28;20728;-68
2021/01/23 00:04:11;;;;;;;26.65;11.70;;;;;;;;;;5088532;28;20020;-68
2021/01/23 00:06:36;;;;;;;28.20;13.40;;;;;;;;;;5088676;28;20076;-68
2021/01/23 00:09:01;;;;;;;30.08;12.68;;;;;;;;;;5089138;28;20388;-68
2021/01/23 00:11:26;;;;;;;22.80;11.32;;;;;;;;;;5089920;28;20075;-67
2021/01/23 00:13:51;;;;;;;29.25;12.93;;;;;;;;;;5089237;28;20020;-67
2021/01/23 00:16:16;;;;;;;22.73;11.23;;;;;;;;;;5088827;28;20034;-67
2021/01/23 00:18:42;;;;;;;24.30;11.98;;;;;;;;;;5087969;28;20408;-67
2021/01/23 00:21:07;;;;;;;25.45;12.70;;;;;;;;;;5087121;28;20035;-67
2021/01/23 00:23:32;;;;;;;27.48;12.27;;;;;;;;;;5088738;28;20065;-67
2021/01/23 00:25:57;;;;;;;23.73;12.43;;;;;;;;;;5087607;28;20036;-67
2021/01/23 00:28:22;;;;;;;23.92;11.48;;;;;;;;;;5088849;28;20051;-67
2021/01/23 00:30:48;;;;;;;23.08;11.35;;;;;;;;;;5086643;28;20282;-67
2021/01/23 00:33:13;;;;;;;24.50;12.07;;;;;;;;;;5088102;28;20035;-67
2021/01/23 00:35:38;;;;;;;25.30;11.77;;;;;;;;;;5088085;28;20047;-67
2021/01/23 00:38:04;;;;;;;22.95;12.35;;;;;;;;;;5086913;28;20032;-68
2021/01/23 00:40:29;;;;;;;37.45;12.98;;;;;;;;;;5087178;28;21102;-68
2021/01/23 00:42:55;;;;;;;24.20;12.48;;;;;;;;;;5089220;28;20400;-68
2021/01/23 00:45:20;;;;;;;25.50;11.85;;;;;;;;;;5088001;28;20069;-68
2021/01/23 00:47:45;;;;;;;24.05;10.30;;;;;;;;;;5087627;28;20056;-67
2021/01/23 00:50:11;;;;;;;24.03;12.07;;;;;;;;;;5087870;28;20016;-68
2021/01/23 00:52:36;;;;;;;24.40;11.18;;;;;;;;;;5088652;28;20258;-67
2021/01/23 00:55:01;;;;;;;30.48;10.98;;;;;;;;;;5089027;28;20020;-67
2021/01/23 00:57:27;;;;;;;25.58;11.90;;;;;;;;;;5087431;28;20020;-68
2021/01/23 00:59:52;;;;;;;27.75;10.85;;;;;;;;;;5088184;28;20116;-67
2021/01/23 01:02:17;;;;;;;30.88;11.95;;;;;;;;;;5088087;28;20065;-68
2021/01/23 01:04:42;;;;;;;25.40;9.15;;;;;;;;;;5087943;28;20180;-67
2021/01/23 01:07:08;;;;;;;22.70;9.85;;;;;;;;;;5087608;28;20036;-68
2021/01/23 01:09:33;;;;;;;32.35;12.32;;;;;;;;;;5088585;28;20675;-67
2021/01/23 01:11:58;;;;;;;22.90;10.43;;;;;;;;;;5088859;28;20038;-68
2021/01/23 01:14:23;;;;;;;28.52;12.10;;;;;;;;;;5087805;28;20024;-68
2021/01/23 01:16:48;;;;;;;23.58;11.55;;;;;;;;;;5088692;28;20042;-68
2021/01/23 01:19:13;;;;;;;20.17;9.88;;;;;;;;;;5087083;28;20114;-67
2021/01/23 01:21:39;;;;;;;24.60;11.48;;;;;;;;;;5085816;28;20111;-67
2021/01/23 01:24:05;;;;;;;23.35;10.98;;;;;;;;;;5088269;28;20043;-68
2021/01/23 01:26:30;;;;;;;24.50;10.80;;;;;;;;;;5088019;28;20122;-68
2021/01/23 01:28:55;;;;;;;22.85;12.05;;;;;;;;;;5088289;28;20016;-67
2021/01/23 01:31:21;;;;;;;24.53;11.33;;;;;;;;;;5091081;23;20510;-65
2021/01/23 01:33:46;;;;;;;28.55;12.15;;;;;;;;;;5086134;28;20833;-65
2021/01/23 01:36:11;;;;;;;27.48;11.48;;;;;;;;;;5086493;28;20123;-65
2021/01/23 01:38:36;;;;;;;31.87;12.17;;;;;;;;;;5087196;28;20024;-65
2021/01/23 01:41:02;;;;;;;27.07;12.20;;;;;;;;;;5087290;28;20853;-65
2021/01/23 01:43:27;;;;;;;29.17;11.88;;;;;;;;;;5087307;28;20260;-65
2021/01/23 01:45:52;;;;;;;27.10;11.73;;;;;;;;;;5087302;28;20111;-65
2021/01/23 01:48:17;;;;;;;22.25;10.75;;;;;;;;;;5086956;28;20080;-65
2021/01/23 01:50:42;;;;;;;25.35;11.60;;;;;;;;;;5087399;28;20258;-65
2021/01/23 01:53:08;;;;;;;24.73;11.73;;;;;;;;;;5087378;28;20024;-64
2021/01/23 01:55:34;;;;;;;19.60;9.27;;;;;;;;;;5068567;28;20077;-64
2021/01/23 01:58:02;;;;;;;24.50;10.65;;;;;;;;;;5086824;28;20031;-64
2021/01/23 02:00:27;;;;;;;24.13;10.07;;;;;;;;;;5086222;28;20103;-64
2021/01/23 02:03:00;;;;;;;27.00;10.05;;;;;;;;;;5086659;28;20110;-64
2021/01/23 02:05:29;;;;;;;23.33;9.30;;;;;;;;;;5085983;28;20046;-64
2021/01/23 02:08:06;;;;;;;27.35;10.65;;;;;;;;;;5087002;28;20023;-64
2021/01/23 02:10:38;;;;;;;28.75;11.68;;;;;;;;;;5086920;28;20058;-64
2021/01/23 02:13:16;;;;;;;21.88;11.05;;;;;;;;;;5086866;28;20488;-64
2021/01/23 02:15:52;;;;;;;25.23;10.30;;;;;;;;;;5086461;28;20036;-64
2021/01/23 02:18:19;;;;;;;22.40;12.25;;;;;;;;;;5081896;28;20754;-64
2021/01/23 02:20:57;;;;;;;22.38;10.15;;;;;;;;;;5085523;28;20028;-64
2021/01/23 02:23:28;;;;;;;20.80;10.40;;;;;;;;;;5084922;28;20049;-64
2021/01/23 02:25:57;;;;;;;18.13;9.20;;;;;;;;;;5084540;28;20117;-64
2021/01/23 02:28:34;;;;;;;19.50;8.02;;;;;;;;;;5084161;28;20023;-64
2021/01/23 02:31:05;;;;;;;17.88;7.72;;;;;;;;;;5084104;28;20032;-64
2021/01/23 02:33:31;;;;;;;25.20;7.90;;;;;;;;;;5084928;28;20051;-64
2021/01/23 02:35:57;;;;;;;13.05;5.93;;;;;;;;;;5080968;28;20140;-64
2021/01/23 02:38:22;;;;;;;17.42;7.95;;;;;;;;;;5084205;28;20440;-64
2021/01/23 02:40:47;;;;;;;5.65;2.85;;;;;;;;;;5084925;28;20055;-64
2021/01/23 02:43:13;;;;;;;15.13;7.32;;;;;;;;;;5082707;28;20024;-64
2021/01/23 02:45:38;;;;;;;20.13;7.40;;;;;;;;;;5083433;28;20020;-64
2021/01/23 02:48:03;;;;;;;14.60;7.37;;;;;;;;;;5084574;28;20266;-64
2021/01/23 02:50:28;;;;;;;17.83;8.40;;;;;;;;;;5084673;28;20255;-64
2021/01/23 02:52:59;;;;;;;23.65;7.90;;;;;;;;;;5083658;28;20507;-64
2021/01/23 02:55:27;;;;;;;18.13;8.30;;;;;;;;;;5084187;28;20031;-64
2021/01/23 02:57:54;;;;;;;19.33;8.02;;;;;;;;;;5083294;28;20485;-64
2021/01/23 03:00:22;;;;;;;18.85;7.63;;;;;;;;;;5084001;28;20028;-65
2021/01/23 03:02:49;;;;;;;21.70;6.93;;;;;;;;;;5084202;28;20027;-64
2021/01/23 03:05:14;;;;;;;6.65;3.42;;;;;;;;;;5083791;28;20028;-64
2021/01/23 03:07:40;;;;;;;14.70;7.43;;;;;;;;;;5084672;28;20422;-64
2021/01/23 03:10:06;;;;;;;18.70;6.72;;;;;;;;;;5084140;28;20069;-64
2021/01/23 03:12:31;;;;;;;19.77;7.47;;;;;;;;;;5084008;28;20027;-64
2021/01/23 03:14:56;;;;;;;10.88;6.45;;;;;;;;;;5084147;28;20028;-64
2021/01/23 03:17:21;;;;;;;16.40;7.25;;;;;;;;;;5083574;28;20408;-64
2021/01/23 03:19:47;;;;;;;19.90;6.85;;;;;;;;;;5083757;28;20378;-64
2021/01/23 03:22:12;;;;;;;12.47;5.77;;;;;;;;;;5083733;28;20041;-64
2021/01/23 03:24:37;;;;;;;6.38;3.40;;;;;;;;;;5084900;28;20262;-64
2021/01/23 03:27:02;;;;;;;13.20;3.78;;;;;;;;;;5085132;28;21199;-64
2021/01/23 03:29:27;;;;;;;16.15;2.83;;;;;;;;;;5087559;28;20307;-64
2021/01/23 03:31:53;;;;;;;16.95;6.97;;;;;;;;;;5089336;28;20031;-64
2021/01/23 03:34:18;;;;;;;13.45;6.00;;;;;;;;;;5088745;28;20107;-64
2021/01/23 03:36:43;;;;;;;9.00;4.25;;;;;;;;;;5088423;28;20111;-64
2021/01/23 03:39:08;;;;;;;6.90;3.20;;;;;;;;;;5088362;28;20383;-64
2021/01/23 03:41:34;;;;;;;18.13;6.85;;;;;;;;;;5088819;28;20049;-64
2021/01/23 03:44:00;;;;;;;12.50;5.90;;;;;;;;;;5088096;28;20061;-64
2021/01/23 03:46:25;;;;;;;9.88;4.38;;;;;;;;;;5088341;28;20016;-64
2021/01/23 03:48:50;;;;;;;14.07;6.60;;;;;;;;;;5089876;28;20064;-64
2021/01/23 03:51:15;;;;;;;10.43;4.88;;;;;;;;;;5089613;28;20024;-64
2021/01/23 03:53:41;;;;;;;8.90;4.45;;;;;;;;;;5091143;28;20028;-64
2021/01/23 03:56:06;;;;;;;16.73;6.57;;;;;;;;;;5089301;28;20099;-64
2021/01/23 03:58:31;;;;;;;9.00;4.40;;;;;;;;;;5089040;28;20051;-64
2021/01/23 04:00:56;;;;;;;13.38;4.70;;;;;;;;;;5087569;28;20046;-64
2021/01/23 04:03:22;;;;;;;14.00;6.25;;;;;;;;;;5090719;28;20023;-64
2021/01/23 04:05:47;;;;;;;13.82;5.00;;;;;;;;;;5088096;28;20020;-64
2021/01/23 04:08:12;;;;;;;12.83;4.70;;;;;;;;;;5089038;28;20036;-64
2021/01/23 04:10:37;;;;;;;8.43;3.53;;;;;;;;;;5089454;28;21032;-64
2021/01/23 04:13:03;;;;;;;7.07;3.40;;;;;;;;;;5089763;28;20039;-64
2021/01/23 04:15:28;;;;;;;12.80;6.18;;;;;;;;;;5088799;28;20767;-64
2021/01/23 04:17:53;;;;;;;9.57;4.93;;;;;;;;;;5089239;28;20529;-64
2021/01/23 04:20:19;;;;;;;9.10;4.80;;;;;;;;;;5088944;28;20016;-64
2021/01/23 04:22:44;;;;;;;7.82;4.50;;;;;;;;;;5087561;28;20070;-64
2021/01/23 04:25:09;;;;;;;10.52;5.20;;;;;;;;;;5086724;28;20027;-64
2021/01/23 04:27:34;;;;;;;6.30;3.38;;;;;;;;;;5087174;28;20024;-64
2021/01/23 04:30:00;;;;;;;9.35;5.18;;;;;;;;;;5085599;28;20143;-64
2021/01/23 04:32:25;;;;;;;10.10;4.65;;;;;;;;;;5087472;28;20523;-64
2021/01/23 04:34:50;;;;;;;18.17;7.50;;;;;;;;;;5086154;28;20077;-64
2021/01/23 04:37:15;;;;;;;7.20;3.83;;;;;;;;;;5086520;28;20027;-64
2021/01/23 04:39:41;;;;;;;12.35;4.72;;;;;;;;;;5087276;28;20054;-64
2021/01/23 04:42:09;;;;;;;12.03;3.37;;;;;;;;;;5087582;28;20391;-64
2021/01/23 04:44:35;;;;;;;10.10;5.95;;;;;;;;;;5087079;28;20261;-64
2021/01/23 04:47:02;;;;;;;13.27;5.50;;;;;;;;;;5087347;28;20124;-64
2021/01/23 04:49:28;;;;;;;7.60;3.60;;;;;;;;;;5086894;28;20406;-64
2021/01/23 04:51:53;;;;;;;12.32;5.10;;;;;;;;;;5086249;28;20028;-64
2021/01/23 04:54:19;;;;;;;15.45;7.85;;;;;;;;;;5087106;28;20159;-64
2021/01/23 04:56:44;;;;;;;4.53;2.17;;;;;;;;;;5087258;28;20522;-64
2021/01/23 04:59:09;;;;;;;15.23;4.35;;;;;;;;;;5089221;28;20024;-64
2021/01/23 05:01:34;;;;;;;9.25;4.07;;;;;;;;;;5088358;28;20309;-64
2021/01/23 05:04:00;;;;;;;9.88;5.18;;;;;;;;;;5088620;28;20019;-64
2021/01/23 05:06:26;;;;;;;6.88;3.47;;;;;;;;;;5087734;28;20269;-64
2021/01/23 05:08:52;;;;;;;11.88;5.15;;;;;;;;;;5088947;28;20020;-64
2021/01/23 05:11:17;;;;;;;11.85;5.72;;;;;;;;;;5088349;28;20115;-64
2021/01/23 05:13:43;;;;;;;8.02;3.95;;;;;;;;;;5088246;28;20060;-64
2021/01/23 05:16:23;;;;;;;10.95;5.13;;;;;;;;;;5088221;28;20136;-64
2021/01/23 05:19:01;;;;;;;8.13;4.40;;;;;;;;;;5088799;28;20016;-64
2021/01/23 05:21:27;;;;;;;6.93;3.88;;;;;;;;;;5088752;28;20487;-64
2021/01/23 05:24:02;;;;;;;11.15;5.07;;;;;;;;;;5087884;28;20115;-64
2021/01/23 05:26:27;;;;;;;15.95;4.03;;;;;;;;;;5088788;28;20094;-64
2021/01/23 05:28:53;;;;;;;11.70;3.80;;;;;;;;;;5087547;28;20107;-64
2021/01/23 05:31:18;;;;;;;9.82;4.70;;;;;;;;;;5087399;28;20372;-64
2021/01/23 05:33:43;;;;;;;16.20;5.50;;;;;;;;;;5088235;28;20016;-64
2021/01/23 05:36:08;;;;;;;3.33;1.75;;;;;;;;;;5087444;28;20020;-64
2021/01/23 05:38:34;;;;;;;8.70;4.97;;;;;;;;;;5088429;28;20048;-64
2021/01/23 05:41:10;;;;;;;9.20;3.83;;;;;;;;;;5087603;28;20286;-64
2021/01/23 05:43:37;;;;;;;11.57;5.40;;;;;;;;;;5087228;28;20024;-64
2021/01/23 05:46:07;;;;;;;12.55;5.05;;;;;;;;;;5087795;28;20046;-64
2021/01/23 05:48:32;;;;;;;14.50;6.05;;;;;;;;;;5087040;28;20018;-64
2021/01/23 05:50:58;;;;;;;8.52;4.22;;;;;;;;;;5086702;28;20028;-64
2021/01/23 05:53:23;;;;;;;12.85;5.38;;;;;;;;;;5089999;28;20027;-66
2021/01/23 05:55:48;;;;;;;7.90;4.20;;;;;;;;;;5090421;28;20384;-65
2021/01/23 05:58:13;;;;;;;8.75;4.93;;;;;;;;;;5088631;28;20419;-66
2021/01/23 06:00:39;;;;;;;16.05;5.28;;;;;;;;;;5089577;28;20069;-64
2021/01/23 06:03:04;;;;;;;7.78;3.70;;;;;;;;;;5089803;28;20052;-65
2021/01/23 06:05:29;;;;;;;11.70;5.60;;;;;;;;;;5089572;28;20054;-67
2021/01/23 06:07:55;;;;;;;9.25;4.50;;;;;;;;;;5088787;28;20078;-64
2021/01/23 06:10:23;;;;;;;10.40;4.68;;;;;;;;;;5089312;28;20020;-63
2021/01/23 06:12:48;;;;;;;15.40;5.68;;;;;;;;;;5088679;28;20103;-65
2021/01/23 06:15:32;;;;;;;8.18;4.32;;;;;;;;;;5088266;28;20599;-65
2021/01/23 06:17:58;;;;;;;6.18;3.67;;;;;;;;;;5088995;28;20417;-63
2021/01/23 06:20:41;;;;;;;12.13;5.28;;;;;;;;;;5088806;28;20051;-62
2021/01/23 06:23:13;;;;;;;6.60;3.63;;;;;;;;;;5088491;28;20088;-65
2021/01/23 06:25:51;;;;;;;1.92;1.20;;;;;;;;;;5087868;28;20032;-64
2021/01/23 06:28:16;;;;;;;11.60;3.47;;;;;;;;;;5087903;28;20626;-64
2021/01/23 06:30:41;;;;;;;7.65;2.85;;;;;;;;;;5088183;28;20028;-63
2021/01/23 06:33:22;;;;;;;9.02;3.47;;;;;;;;;;5088209;28;20089;-63
2021/01/23 06:36:06;;;;;;;14.45;5.22;;;;;;;;;;5088166;28;20392;-63
2021/01/23 06:38:31;;;;;;;10.85;4.38;;;;;;;;;;5088605;28;20031;-64
2021/01/23 06:41:15;;;;;;;9.57;4.78;;;;;;;;;;5088096;28;20024;-65
2021/01/23 06:44:00;;;;;;;10.18;3.83;;;;;;;;;;5088111;28;20018;-64
2021/01/23 06:46:25;;;;;;;9.35;4.13;;;;;;;;;;5086678;28;20420;-63
2021/01/23 06:49:00;;;;;;;8.88;2.00;;;;;;;;;;5087792;28;20103;-65
2021/01/23 06:51:25;;;;;;;11.73;5.28;;;;;;;;;;5088304;28;20254;-64
2021/01/23 06:53:50;;;;;;;10.27;3.80;;;;;;;;;;5089073;28;20157;-66
2021/01/23 06:56:16;;;;;;;6.43;3.60;;;;;;;;;;5087962;28;20789;-65
2021/01/23 06:58:43;;;;;;;5.68;3.05;;;;;;;;;;5087852;28;20253;-62
2021/01/23 07:01:15;;;;;;;14.20;4.63;;;;;;;;;;5088104;28;20023;-62
2021/01/23 07:03:40;;;;;;;10.27;4.82;;;;;;;;;;5094515;28;20020;-66
2021/01/23 07:06:05;;;;;;;6.15;3.10;;;;;;;;;;5094650;28;20042;-64
2021/01/23 07:08:31;;;;;;;9.80;5.38;;;;;;;;;;5093936;28;20044;-64
2021/01/23 07:11:10;;;;;;;13.02;5.15;;;;;;;;;;5093100;28;20028;-63
2021/01/23 07:13:36;;;;;;;7.05;2.85;;;;;;;;;;5093621;28;20028;-64
2021/01/23 07:16:01;;;;;;;4.13;2.15;;;;;;;;;;5092464;28;20028;-63
2021/01/23 07:18:27;;;;;;;9.68;3.65;;;;;;;;;;5092899;28;20019;-64
2021/01/23 07:20:53;;;;;;;9.05;4.82;;;;;;;;;;5093000;28;20043;-64
2021/01/23 07:23:18;;;;;;;9.75;3.05;;;;;;;;;;5093531;28;20067;-64
2021/01/23 07:25:43;;;;;;;5.30;3.10;;;;;;;;;;5093019;28;20575;-64
2021/01/23 07:28:09;;;;;;;12.98;5.63;;;;;;;;;;5092568;28;20491;-64
2021/01/23 07:30:34;;;;;;;14.50;5.63;;;;;;;;;;5093480;28;20028;-62
2021/01/23 07:32:59;;;;;;;15.80;6.88;;;;;;;;;;5090074;28;20051;-64
2021/01/23 07:35:25;;;;;;;11.68;4.35;;;;;;;;;;5090615;28;20472;-63
2021/01/23 07:37:51;;;;;;;7.18;3.20;;;;;;;;;;5090927;28;20027;-63
2021/01/23 07:40:19;;;;;;;6.85;4.18;;;;;;;;;;5091480;28;20023;-64
2021/01/23 07:42:45;;;;;;;12.68;5.55;;;;;;;;;;5090713;28;20023;-65
2021/01/23 07:45:12;;;;;;;4.45;2.83;;;;;;;;;;5090830;28;20095;-64
2021/01/23 07:47:38;;;;;;;10.00;4.30;;;;;;;;;;5091126;28;20028;-62
2021/01/23 07:50:03;;;;;;;11.35;4.50;;;;;;;;;;5091517;28;20368;-64
2021/01/23 07:52:29;;;;;;;14.68;4.65;;;;;;;;;;5091409;28;20024;-65
2021/01/23 07:54:54;;;;;;;9.63;3.07;;;;;;;;;;5088496;28;20525;-66
2021/01/23 07:57:19;;;;;;;9.15;5.28;;;;;;;;;;5087708;28;20273;-63
2021/01/23 07:59:45;;;;;;;11.90;3.55;;;;;;;;;;5101307;28;20024;-64
2021/01/23 08:02:10;;;;;;;13.43;5.00;;;;;;;;;;5104091;28;21078;-65
2021/01/23 08:04:36;;;;;;;7.97;4.50;;;;;;;;;;5098371;28;20043;-65
2021/01/23 08:07:20;;;;;;;9.98;3.75;;;;;;;;;;5098306;28;20023;-65
2021/01/23 08:09:46;;;;;;;9.88;3.95;;;;;;;;;;5100308;28;20027;-64
2021/01/23 08:12:18;;;;;;;6.22;3.33;;;;;;;;;;5094509;28;20069;-63
2021/01/23 08:14:53;;;;;;;8.25;4.25;;;;;;;;;;5095298;28;20038;-64
2021/01/23 08:17:18;;;;;;;10.32;4.80;;;;;;;;;;5095183;28;20021;-63
2021/01/23 08:19:48;;;;;;;7.70;4.40;;;;;;;;;;5087411;28;20035;-63
2021/01/23 08:22:13;;;;;;;10.13;5.47;;;;;;;;;;5088130;28;20024;-65
2021/01/23 08:24:38;;;;;;;8.98;4.32;;;;;;;;;;5090918;28;20067;-64
2021/01/23 08:27:16;;;;;;;5.55;2.67;;;;;;;;;;5087172;28;20406;-64
2021/01/23 08:29:43;;;;;;;9.38;4.45;;;;;;;;;;5087979;28;20107;-64
2021/01/23 08:32:08;;;;;;;5.38;2.58;;;;;;;;;;5095937;28;20096;-64
2021/01/23 08:34:33;;;;;;;7.22;4.32;;;;;;;;;;5097403;28;20409;-63
2021/01/23 08:36:59;;;;;;;11.63;5.95;;;;;;;;;;5095813;28;20254;-64
2021/01/23 08:39:24;;;;;;;6.85;3.05;;;;;;;;;;5094694;28;20698;-64
2021/01/23 08:41:49;;;;;;;8.35;3.50;;;;;;;;;;5095360;28;20258;-63
2021/01/23 08:44:14;;;;;;;10.85;5.32;;;;;;;;;;5092724;28;20154;-63
2021/01/23 08:46:39;;;;;;;12.48;5.95;;;;;;;;;;5094643;28;20092;-64
2021/01/23 08:49:05;;;;;;;9.85;4.35;;;;;;;;;;5094073;28;20027;-65
2021/01/23 08:51:31;;;;;;;7.80;4.28;;;;;;;;;;5090615;28;20028;-63
2021/01/23 08:53:56;;;;;;;10.95;3.00;;;;;;;;;;5087119;28;20100;-64
2021/01/23 08:56:21;;;;;;;9.30;3.55;;;;;;;;;;5088222;28;20024;-67
2021/01/23 08:58:47;;;;;;;4.40;2.95;;;;;;;;;;5087949;28;20281;-64
2021/01/23 09:01:13;;;;;;;12.43;5.65;;;;;;;;;;5086939;28;20646;-66
2021/01/23 09:03:39;;;;;;;6.18;2.97;;;;;;;;;;5097275;28;20031;-64
2021/01/23 09:06:04;;;;;;;10.18;4.15;;;;;;;;;;5095524;28;20023;-66
2021/01/23 09:08:29;;;;;;;7.57;4.47;;;;;;;;;;5095665;28;20024;-64
2021/01/23 09:10:54;;;;;;;11.05;4.93;;;;;;;;;;5087941;28;20012;-64
2021/01/23 09:13:19;;;;;;;8.48;4.00;;;;;;;;;;5087010;28;20289;-64
2021/01/23 09:15:44;;;;;;;6.75;3.63;;;;;;;;;;5088939;28;20104;-65
2021/01/23 09:18:10;;;;;;;11.68;4.63;;;;;;;;;;5091451;28;20169;-64
2021/01/23 09:20:35;;;;;;;11.10;5.45;;;;;;;;;;5093273;28;20644;-65
2021/01/23 09:23:00;;;;;;;5.80;2.47;;;;;;;;;;5093836;28;20129;-64
2021/01/23 09:25:25;;;;;;;11.23;5.17;;;;;;;;;;5084759;28;21104;-65
2021/01/23 09:27:50;;;;;;;14.85;5.28;;;;;;;;;;5087654;28;20258;-64
2021/01/23 09:30:16;;;;;;;7.70;3.97;;;;;;;;;;5087194;28;20060;-65
2021/01/23 09:32:42;;;;;;;7.78;3.85;;;;;;;;;;5089219;28;20097;-65
2021/01/23 09:35:08;;;;;;;9.68;4.90;;;;;;;;;;5086252;28;20063;-65
2021/01/23 09:37:33;;;;;;;12.65;4.55;;;;;;;;;;5094891;28;20100;-65
2021/01/23 09:40:00;;;;;;;9.55;3.95;;;;;;;;;;5085932;28;20656;-64
2021/01/23 09:42:25;;;;;;;11.63;4.18;;;;;;;;;;5094817;28;20024;-64
2021/01/23 09:44:50;;;;;;;12.53;4.77;;;;;;;;;;5086133;28;20035;-64
2021/01/23 09:47:16;;;;;;;12.82;5.25;;;;;;;;;;5084692;28;20355;-65
2021/01/23 09:49:41;;;;;;;10.40;5.25;;;;;;;;;;5088745;28;20763;-63
2021/01/23 09:52:06;;;;;;;9.45;4.60;;;;;;;;;;5083045;28;20542;-65
2021/01/23 09:54:31;;;;;;;11.10;5.75;;;;;;;;;;5084380;28;20038;-62
2021/01/23 09:56:56;;;;;;;11.05;5.00;;;;;;;;;;5083428;28;20499;-65
2021/01/23 09:59:21;;;;;;;14.07;5.35;;;;;;;;;;5084949;28;20092;-65
2021/01/23 10:01:47;;;;;;;14.40;5.10;;;;;;;;;;5088702;28;20278;-64
2021/01/23 10:04:12;;;;;;;8.38;4.68;;;;;;;;;;5091118;28;20266;-65
2021/01/23 10:06:37;;;;;;;10.68;5.07;;;;;;;;;;5092418;28;20500;-64
2021/01/23 10:09:02;;;;;;;12.93;6.57;;;;;;;;;;5095316;28;20289;-64
2021/01/23 10:11:27;;;;;;;10.77;4.78;;;;;;;;;;5095665;28;20282;-65
2021/01/23 10:13:53;;;;;;;11.93;4.63;;;;;;;;;;5099013;28;20368;-64
2021/01/23 10:16:18;;;;;;;9.17;4.23;;;;;;;;;;5097096;28;20081;-66
2021/01/23 10:18:43;;;;;;;14.67;5.77;;;;;;;;;;5098263;28;20273;-64
2021/01/23 10:21:08;;;;;;;10.95;3.88;;;;;;;;;;5091075;28;20290;-65
2021/01/23 10:23:33;;;;;;;10.43;6.20;;;;;;;;;;5097358;28;20265;-64
2021/01/23 10:25:59;;;;;;;11.10;5.93;;;;;;;;;;5091534;28;20024;-64
2021/01/23 10:28:24;;;;;;;13.52;6.35;;;;;;;;;;5086490;28;22159;-63
2021/01/23 10:30:49;;;;;;;12.47;5.80;;;;;;;;;;5089696;28;20028;-64
2021/01/23 10:33:14;;;;;;;12.27;6.20;;;;;;;;;;5089759;28;20269;-64
2021/01/23 10:35:40;;;;;;;9.13;5.17;;;;;;;;;;5087179;28;20040;-64
2021/01/23 10:38:05;;;;;;;3.28;2.15;;;;;;;;;;5088513;28;20614;-64
2021/01/23 10:40:30;;;;;;;9.68;5.40;;;;;;;;;;5088830;28;20378;-66
2021/01/23 10:42:55;;;;;;;8.48;3.55;;;;;;;;;;5088832;28;20088;-63
2021/01/23 10:45:20;;;;;;;10.13;5.43;;;;;;;;;;5090168;28;20027;-65
2021/01/23 10:47:46;;;;;;;12.17;6.00;;;;;;;;;;5089299;28;20262;-65
2021/01/23 10:50:11;;;;;;;16.10;7.15;;;;;;;;;;5090889;28;20345;-67
2021/01/23 10:52:36;;;;;;;13.48;6.68;;;;;;;;;;5088342;28;20031;-64
2021/01/23 10:55:01;;;;;;;13.70;5.93;;;;;;;;;;5089477;28;20498;-64
2021/01/23 10:57:27;;;;;;;9.50;4.85;;;;;;;;;;5092075;28;20438;-63
2021/01/23 10:59:52;;;;;;;5.15;2.65;;;;;;;;;;5090789;28;20111;-63
2021/01/23 11:02:17;;;;;;;10.23;5.50;;;;;;;;;;5093922;28;20051;-64
2021/01/23 11:04:42;;;;;;;12.07;6.53;;;;;;;;;;5091312;28;20655;-65
2021/01/23 11:07:07;;;;;;;7.50;4.05;;;;;;;;;;5089497;28;20391;-64
2021/01/23 11:09:32;;;;;;;9.20;3.88;;;;;;;;;;5092843;28;20394;-65
2021/01/23 11:11:58;;;;;;;8.55;5.25;;;;;;;;;;5094124;28;20277;-64
2021/01/23 11:14:23;;;;;;;10.15;5.85;;;;;;;;;;5092950;28;20485;-66
2021/01/23 11:16:51;;;;;;;9.88;5.38;;;;;;;;;;5092648;28;20030;-65
2021/01/23 11:19:16;;;;;;;8.88;3.67;;;;;;;;;;5091665;28;20429;-65
2021/01/23 11:21:42;;;;;;;8.77;5.03;;;;;;;;;;5092891;28;20298;-64
2021/01/23 11:24:07;;;;;;;7.97;4.40;;;;;;;;;;5092623;28;20495;-65
2021/01/23 11:26:32;;;;;;;9.52;4.63;;;;;;;;;;5088673;28;20024;-64
2021/01/23 11:28:57;;;;;;;8.52;4.10;;;;;;;;;;5092313;28;20027;-66
2021/01/23 11:31:24;;;;;;;9.10;4.65;;;;;;;;;;5093352;28;20047;-65
2021/01/23 11:33:49;;;;;;;8.27;4.40;;;;;;;;;;5090492;28;20020;-64
2021/01/23 11:36:14;;;;;;;8.95;4.20;;;;;;;;;;5086096;28;20023;-64
2021/01/23 11:38:39;;;;;;;10.57;5.05;;;;;;;;;;5084886;28;20051;-65
2021/01/23 11:41:04;;;;;;;11.30;4.53;;;;;;;;;;5085055;28;20946;-65
2021/01/23 11:43:30;;;;;;;11.40;4.85;;;;;;;;;;5091053;28;20015;-65
2021/01/23 11:45:55;;;;;;;6.68;3.20;;;;;;;;;;5097758;28;20020;-65
2021/01/23 11:48:20;;;;;;;9.50;4.32;;;;;;;;;;5092819;28;20097;-64
2021/01/23 11:50:45;;;;;;;5.40;3.47;;;;;;;;;;5098742;28;20037;-65
2021/01/23 11:53:10;;;;;;;6.00;3.07;;;;;;;;;;5096489;28;20288;-64
2021/01/23 11:55:35;;;;;;;7.50;3.30;;;;;;;;;;5095977;28;20378;-66
2021/01/23 11:58:01;;;;;;;5.22;3.08;;;;;;;;;;5095379;28;20612;-64
2021/01/23 12:00:26;;;;;;;6.88;2.90;;;;;;;;;;5095900;28;20305;-65
2021/01/23 12:02:51;;;;;;;4.47;2.35;;;;;;;;;;5097740;28;20024;-64
2021/01/23 12:05:19;;;;;;;7.78;3.13;;;;;;;;;;5099092;28;20055;-64
2021/01/23 12:07:47;;;;;;;9.93;3.40;;;;;;;;;;5095820;28;20158;-66
2021/01/23 12:10:14;;;;;;;8.05;3.25;;;;;;;;;;5095882;28;20405;-66
2021/01/23 12:12:39;;;;;;;4.82;2.97;;;;;;;;;;5096280;28;20028;-65
2021/01/23 12:15:04;;;;;;;9.63;3.17;;;;;;;;;;5093701;28;20027;-64
2021/01/23 12:17:30;;;;;;;6.22;2.90;;;;;;;;;;5093200;28;20360;-64
2021/01/23 12:19:55;;;;;;;3.20;1.80;;;;;;;;;;5095797;28;20031;-64
2021/01/23 12:22:20;;;;;;;6.32;2.63;;;;;;;;;;5085373;28;21136;-65
2021/01/23 12:24:45;;;;;;;3.63;1.50;;;;;;;;;;5084315;28;20508;-64
2021/01/23 12:27:10;;;;;;;5.60;2.30;;;;;;;;;;5088518;28;20278;-65
2021/01/23 12:29:36;;;;;;;6.20;1.85;;;;;;;;;;5094129;28;20069;-65
2021/01/23 12:32:05;;;;;;;3.30;1.63;;;;;;;;;;5099577;28;20031;-65
2021/01/23 12:34:30;;;;;;;4.07;1.65;;;;;;;;;;5105318;28;20539;-64
2021/01/23 12:36:55;;;;;;;3.78;1.80;;;;;;;;;;5099840;28;20157;-65
2021/01/23 12:39:21;;;;;;;6.63;2.03;;;;;;;;;;5107039;28;20280;-65
2021/01/23 12:41:46;;;;;;;5.13;2.00;;;;;;;;;;5106847;28;20085;-65
2021/01/23 12:44:11;;;;;;;5.40;1.57;;;;;;;;;;5105333;28;20161;-64
2021/01/23 12:46:36;;;;;;;4.37;1.40;;;;;;;;;;5109871;28;20771;-64
2021/01/23 12:49:01;;;;;;;6.03;1.67;;;;;;;;;;5108201;28;20306;-64
2021/01/23 12:51:26;;;;;;;3.47;1.50;;;;;;;;;;5093119;28;20273;-64
2021/01/23 12:53:52;;;;;;;5.53;1.92;;;;;;;;;;5091626;28;20278;-64
2021/01/23 12:56:17;;;;;;;3.90;1.75;;;;;;;;;;5101593;28;20020;-64
2021/01/23 12:58:43;;;;;;;5.78;1.70;;;;;;;;;;5101346;28;20020;-64
2021/01/23 13:01:08;;;;;;;3.40;1.30;;;;;;;;;;5104302;28;20384;-64
2021/01/23 13:03:34;;;;;;;9.63;1.87;;;;;;;;;;5096166;28;20048;-64
2021/01/23 13:05:59;;;;;;;4.38;1.67;;;;;;;;;;5089830;28;20289;-64
2021/01/23 13:08:24;;;;;;;8.30;1.70;;;;;;;;;;5088143;28;20012;-64
2021/01/23 13:10:49;;;;;;;5.80;1.63;;;;;;;;;;5087315;28;20046;-64
2021/01/23 13:13:15;;;;;;;5.05;1.50;;;;;;;;;;5095856;28;20353;-65
2021/01/23 13:15:40;;;;;;;3.65;1.55;;;;;;;;;;5094522;28;20090;-64
2021/01/23 13:18:07;;;;;;;3.80;1.40;;;;;;;;;;5097901;28;20024;-65
2021/01/23 13:20:32;;;;;;;4.32;1.40;;;;;;;;;;5101160;28;20016;-65
2021/01/23 13:22:57;;;;;;;1.97;1.00;;;;;;;;;;5093452;28;20016;-65
2021/01/23 13:25:22;;;;;;;5.20;1.42;;;;;;;;;;5100105;28;20844;-64
2021/01/23 13:27:47;;;;;;;7.40;2.17;;;;;;;;;;5099194;28;20376;-65
2021/01/23 13:32:43;;;;;;;4.22;0.95;;;;;;;;;;5112925;22;20147;-64
2021/01/23 13:35:09;;;;;;;5.28;1.70;;;;;;;;;;5088881;28;20016;-65
2021/01/23 13:37:35;;;;;;;5.78;1.60;;;;;;;;;;5090037;28;20025;-65
2021/01/23 13:40:00;;;;;;;3.00;1.30;;;;;;;;;;5087886;28;20474;-64
2021/01/23 13:42:25;;;;;;;8.07;1.50;;;;;;;;;;5080832;28;20077;-66
2021/01/23 13:44:50;;;;;;;1.57;1.10;;;;;;;;;;5077787;28;20270;-66
2021/01/23 13:47:15;;;;;;;4.60;1.33;;;;;;;;;;5075882;28;20353;-66
2021/01/23 13:49:40;;;;;;;4.10;1.60;;;;;;;;;;5086530;28;20277;-64
2021/01/23 13:52:05;;;;;;;4.68;1.73;;;;;;;;;;5087844;28;20349;-65
2021/01/23 13:54:31;;;;;;;4.03;1.27;;;;;;;;;;5083728;28;20293;-63
2021/01/23 13:56:56;;;;;;;1.83;1.08;;;;;;;;;;5079684;28;20282;-66
2021/01/23 13:59:21;;;;;;;2.73;1.20;;;;;;;;;;5085222;28;20798;-65
2021/01/23 14:01:46;;;;;;;6.10;1.95;;;;;;;;;;5086105;28;20311;-65
2021/01/23 14:04:12;;;;;;;0.50;0.43;;;;;;;;;;5087936;28;20107;-67
2021/01/23 14:06:38;;;;;;;4.57;1.50;;;;;;;;;;5084511;28;20372;-64
2021/01/23 14:09:03;;;;;;;2.60;1.10;;;;;;;;;;5084627;28;20028;-65
2021/01/23 14:11:28;;;;;;;2.97;1.40;;;;;;;;;;5084798;28;20364;-65
2021/01/23 14:13:53;;;;;;;5.03;1.05;;;;;;;;;;5085588;28;20541;-64
2021/01/23 14:16:20;;;;;;;3.33;0.63;;;;;;;;;;5084847;28;20028;-65
2021/01/23 14:18:45;;;;;;;0.85;0.80;;;;;;;;;;5085373;28;20271;-65
2021/01/23 14:21:10;;;;;;;1.88;1.00;;;;;;;;;;5086130;28;20028;-65
2021/01/23 14:23:36;;;;;;;1.55;0.98;;;;;;;;;;5086922;28;20451;-65
2021/01/23 14:26:02;;;;;;;2.40;0.93;;;;;;;;;;5083539;28;20278;-65
2021/01/23 14:28:27;;;;;;;2.88;1.13;;;;;;;;;;5084347;28;20257;-65
2021/01/23 14:30:52;;;;;;;4.68;1.63;;;;;;;;;;5081560;28;20341;-65